sensor_id;sensor_type;location;lat;lon;timestamp;temperature;humidity
5850;DHT22;2951;47.712;9.400;2024-01-10T00:00:22;-2.20;99.90
5850;DHT22;2951;47.712;9.400;2024-01-10T00:02:49;-2.30;99.90
5850;DHT22;2951;47.712;9.400;2024-01-10T00:05:16;-2.30;99.90
5850;DHT22;2951;47.712;9.400;2024-01-10T00:07:46;-2.30;99.90
5850;DHT22;2951;47.712;9.400;2024-01-10T00:10:14;-2.20;99.90
5850;DHT22;2951;47.712;9.400;2024-01-10T00:12:43;-2.20;99.90
5850;DHT22;2951;47.712;9.400;2024-01-10T00:15:11;-2.20;99.90
5850;DHT22;2951;47.712;9.400;2024-01-10T00:17:37;-2.20;99.90
5850;DHT22;2951;47.712;9.400;2024-01-10T00:20:07;-2.20;99.90
5850;DHT22;2951;47.712;9.400;2024-01-10T00:22:34;-2.30;99.90
5850;DHT22;2951;47.712;9.400;2024-01-10T00:25:01;-2.20;99.90
5850;DHT22;2951;47.712;9.400;2024-01-10T00:27:28;-2.30;99.90
5850;DHT22;2951;47.712;9.400;2024-01-10T00:29:54;-2.30;99.90
5850;DHT22;2951;47.712;9.400;2024-01-10T00:32:23;-2.20;99.90
5850;DHT22;2951;47.712;9.400;2024-01-10T00:34:50;-2.30;99.90
5850;DHT22;2951;47.712;9.400;2024-01-10T00:37:16;-2.40;99.90
5850;DHT22;2951;47.712;9.400;2024-01-10T00:39:43;-2.40;99.90
5850;DHT22;2951;47.712;9.400;2024-01-10T00:42:11;-2.40;99.90
5850;DHT22;2951;47.712;9.400;2024-01-10T00:44:38;-2.50;99.90
5850;DHT22;2951;47.712;9.400;2024-01-10T00:47:05;-2.50;99.90
5850;DHT22;2951;47.712;9.400;2024-01-10T00:49:32;-2.50;99.90
5850;DHT22;2951;47.712;9.400;2024-01-10T00:51:59;-2.60;99.90
5850;DHT22;2951;47.712;9.400;2024-01-10T00:54:26;-2.60;99.90
5850;DHT22;2951;47.712;9.400;2024-01-10T00:56:52;-2.60;99.90
5850;DHT22;2951;47.712;9.400;2024-01-10T00:59:19;-2.60;99.90
5850;DHT22;2951;47.712;9.400;2024-01-10T01:01:46;-2.70;99.90
5850;DHT22;2951;47.712;9.400;2024-01-10T01:04:13;-2.80;99.90
5850;DHT22;2951;47.712;9.400;2024-01-10T01:06:39;-2.90;99.90
5850;DHT22;2951;47.712;9.400;2024-01-10T01:09:06;-2.80;99.90
5850;DHT22;2951;47.712;9.400;2024-01-10T01:11:37;-2.90;99.90
5850;DHT22;2951;47.712;9.400;2024-01-10T01:14:03;-2.70;99.90
5850;DHT22;2951;47.712;9.400;2024-01-10T01:16:30;-2.70;99.90
5850;DHT22;2951;47.712;9.400;2024-01-10T01:18:57;-2.80;99.90
5850;DHT22;2951;47.712;9.400;2024-01-10T01:21:24;-2.80;99.90
5850;DHT22;2951;47.712;9.400;2024-01-10T01:23:51;-2.80;99.90
5850;DHT22;2951;47.712;9.400;2024-01-10T01:26:18;-2.80;99.90
5850;DHT22;2951;47.712;9.400;2024-01-10T01:28:45;-2.70;99.90
5850;DHT22;2951;47.712;9.400;2024-01-10T01:31:11;-2.70;99.90
5850;DHT22;2951;47.712;9.400;2024-01-10T01:33:40;-2.90;99.90
5850;DHT22;2951;47.712;9.400;2024-01-10T01:36:07;-2.90;99.90
5850;DHT22;2951;47.712;9.400;2024-01-10T01:38:35;-2.80;99.90
5850;DHT22;2951;47.712;9.400;2024-01-10T01:41:02;-2.80;99.90
5850;DHT22;2951;47.712;9.400;2024-01-10T01:43:29;-2.80;99.90
5850;DHT22;2951;47.712;9.400;2024-01-10T01:45:56;-2.70;99.90
5850;DHT22;2951;47.712;9.400;2024-01-10T01:48:23;-2.90;99.90
5850;DHT22;2951;47.712;9.400;2024-01-10T01:50:53;-2.70;99.90
5850;DHT22;2951;47.712;9.400;2024-01-10T01:53:20;-2.70;99.90
5850;DHT22;2951;47.712;9.400;2024-01-10T01:55:50;-2.70;99.90
5850;DHT22;2951;47.712;9.400;2024-01-10T01:58:16;-2.80;99.90
5850;DHT22;2951;47.712;9.400;2024-01-10T02:00:43;-2.70;99.90
5850;DHT22;2951;47.712;9.400;2024-01-10T02:03:10;-2.80;99.90
5850;DHT22;2951;47.712;9.400;2024-01-10T02:05:37;-2.80;99.90
5850;DHT22;2951;47.712;9.400;2024-01-10T02:08:04;-2.90;99.90
5850;DHT22;2951;47.712;9.400;2024-01-10T02:13:24;-2.90;99.90
5850;DHT22;2951;47.712;9.400;2024-01-10T02:15:53;-2.80;99.90
5850;DHT22;2951;47.712;9.400;2024-01-10T02:18:20;-2.80;99.90
5850;DHT22;2951;47.712;9.400;2024-01-10T02:20:47;-2.80;99.90
5850;DHT22;2951;47.712;9.400;2024-01-10T02:23:16;-2.80;99.90
5850;DHT22;2951;47.712;9.400;2024-01-10T02:25:42;-2.80;99.90
5850;DHT22;2951;47.712;9.400;2024-01-10T02:28:09;-2.90;99.90
5850;DHT22;2951;47.712;9.400;2024-01-10T02:30:37;-2.80;99.90
5850;DHT22;2951;47.712;9.400;2024-01-10T02:33:04;-2.80;99.90
5850;DHT22;2951;47.712;9.400;2024-01-10T02:35:31;-2.80;99.90
5850;DHT22;2951;47.712;9.400;2024-01-10T02:37:59;-2.70;99.90
5850;DHT22;2951;47.712;9.400;2024-01-10T02:40:26;-2.80;99.90
5850;DHT22;2951;47.712;9.400;2024-01-10T02:42:53;-2.70;99.90
5850;DHT22;2951;47.712;9.400;2024-01-10T02:45:22;-2.90;99.90
5850;DHT22;2951;47.712;9.400;2024-01-10T02:47:48;-2.80;99.90
5850;DHT22;2951;47.712;9.400;2024-01-10T02:50:15;-2.80;99.90
5850;DHT22;2951;47.712;9.400;2024-01-10T02:52:43;-2.90;99.90
5850;DHT22;2951;47.712;9.400;2024-01-10T02:55:10;-2.70;99.90
5850;DHT22;2951;47.712;9.400;2024-01-10T02:57:37;-2.70;99.90
5850;DHT22;2951;47.712;9.400;2024-01-10T03:00:06;-2.70;99.90
5850;DHT22;2951;47.712;9.400;2024-01-10T03:02:33;-2.80;99.90
5850;DHT22;2951;47.712;9.400;2024-01-10T03:05:00;-2.80;99.90
5850;DHT22;2951;47.712;9.400;2024-01-10T03:07:26;-2.80;99.90
5850;DHT22;2951;47.712;9.400;2024-01-10T03:09:58;-2.70;99.90
5850;DHT22;2951;47.712;9.400;2024-01-10T03:12:25;-2.70;99.90
5850;DHT22;2951;47.712;9.400;2024-01-10T03:14:52;-2.70;99.90
5850;DHT22;2951;47.712;9.400;2024-01-10T03:17:19;-2.60;99.90
5850;DHT22;2951;47.712;9.400;2024-01-10T03:19:46;-2.60;99.90
5850;DHT22;2951;47.712;9.400;2024-01-10T03:22:12;-2.70;99.90
5850;DHT22;2951;47.712;9.400;2024-01-10T03:24:39;-2.80;99.90
5850;DHT22;2951;47.712;9.400;2024-01-10T03:27:06;-2.60;99.90
5850;DHT22;2951;47.712;9.400;2024-01-10T03:29:33;-2.60;99.90
5850;DHT22;2951;47.712;9.400;2024-01-10T03:32:01;-2.50;99.90
5850;DHT22;2951;47.712;9.400;2024-01-10T03:34:28;-2.50;99.90
5850;DHT22;2951;47.712;9.400;2024-01-10T03:36:57;-2.50;99.90
5850;DHT22;2951;47.712;9.400;2024-01-10T03:39:24;-2.60;99.90
5850;DHT22;2951;47.712;9.400;2024-01-10T03:41:51;-2.50;99.90
5850;DHT22;2951;47.712;9.400;2024-01-10T03:44:18;-2.70;99.90
5850;DHT22;2951;47.712;9.400;2024-01-10T03:46:45;-2.40;99.90
5850;DHT22;2951;47.712;9.400;2024-01-10T03:49:11;-2.40;99.90
5850;DHT22;2951;47.712;9.400;2024-01-10T03:51:38;-2.30;99.90
5850;DHT22;2951;47.712;9.400;2024-01-10T03:54:07;-2.30;99.90
5850;DHT22;2951;47.712;9.400;2024-01-10T03:56:33;-2.30;99.90
5850;DHT22;2951;47.712;9.400;2024-01-10T03:59:00;-2.20;99.90
5850;DHT22;2951;47.712;9.400;2024-01-10T04:01:28;-2.30;99.90
5850;DHT22;2951;47.712;9.400;2024-01-10T04:03:54;-2.20;99.90
5850;DHT22;2951;47.712;9.400;2024-01-10T04:06:21;-2.30;99.90
5850;DHT22;2951;47.712;9.400;2024-01-10T04:08:48;-2.30;99.90
5850;DHT22;2951;47.712;9.400;2024-01-10T04:11:20;-2.30;99.90
5850;DHT22;2951;47.712;9.400;2024-01-10T04:13:48;-2.50;99.90
5850;DHT22;2951;47.712;9.400;2024-01-10T04:16:15;-2.50;99.90
5850;DHT22;2951;47.712;9.400;2024-01-10T04:18:41;-2.50;99.90
5850;DHT22;2951;47.712;9.400;2024-01-10T04:21:08;-2.50;99.90
5850;DHT22;2951;47.712;9.400;2024-01-10T04:23:35;-2.40;99.90
5850;DHT22;2951;47.712;9.400;2024-01-10T04:26:02;-2.40;99.90
5850;DHT22;2951;47.712;9.400;2024-01-10T04:28:31;-2.40;99.90
5850;DHT22;2951;47.712;9.400;2024-01-10T04:30:58;-2.50;99.90
5850;DHT22;2951;47.712;9.400;2024-01-10T04:33:25;-2.50;99.90
5850;DHT22;2951;47.712;9.400;2024-01-10T04:35:55;-2.40;99.90
5850;DHT22;2951;47.712;9.400;2024-01-10T04:38:22;-2.30;99.90
5850;DHT22;2951;47.712;9.400;2024-01-10T04:40:52;-2.40;99.90
5850;DHT22;2951;47.712;9.400;2024-01-10T04:43:19;-2.30;99.90
5850;DHT22;2951;47.712;9.400;2024-01-10T04:45:46;-2.30;99.90
5850;DHT22;2951;47.712;9.400;2024-01-10T04:48:13;-2.30;99.90
5850;DHT22;2951;47.712;9.400;2024-01-10T04:50:40;-2.30;99.90
5850;DHT22;2951;47.712;9.400;2024-01-10T04:53:07;-2.30;99.90
5850;DHT22;2951;47.712;9.400;2024-01-10T04:55:34;-2.30;99.90
5850;DHT22;2951;47.712;9.400;2024-01-10T04:58:01;-2.20;99.90
5850;DHT22;2951;47.712;9.400;2024-01-10T05:00:28;-2.30;99.90
5850;DHT22;2951;47.712;9.400;2024-01-10T05:02:55;-2.30;99.90
5850;DHT22;2951;47.712;9.400;2024-01-10T05:05:21;-2.30;99.90
5850;DHT22;2951;47.712;9.400;2024-01-10T05:07:50;-2.20;99.90
5850;DHT22;2951;47.712;9.400;2024-01-10T05:10:20;-2.30;99.90
5850;DHT22;2951;47.712;9.400;2024-01-10T05:12:48;-2.40;99.90
5850;DHT22;2951;47.712;9.400;2024-01-10T05:15:15;-2.40;99.90
5850;DHT22;2951;47.712;9.400;2024-01-10T05:17:41;-2.30;99.90
5850;DHT22;2951;47.712;9.400;2024-01-10T05:20:09;-2.30;99.90
5850;DHT22;2951;47.712;9.400;2024-01-10T05:22:36;-2.50;99.90
5850;DHT22;2951;47.712;9.400;2024-01-10T05:25:03;-2.40;99.90
5850;DHT22;2951;47.712;9.400;2024-01-10T05:27:31;-2.40;99.90
5850;DHT22;2951;47.712;9.400;2024-01-10T05:29:58;-2.50;99.90
5850;DHT22;2951;47.712;9.400;2024-01-10T05:32:26;-2.70;99.90
5850;DHT22;2951;47.712;9.400;2024-01-10T05:34:54;-2.70;99.90
5850;DHT22;2951;47.712;9.400;2024-01-10T05:37:21;-2.70;99.90
5850;DHT22;2951;47.712;9.400;2024-01-10T05:39:48;-2.80;99.90
5850;DHT22;2951;47.712;9.400;2024-01-10T05:42:16;-2.80;99.90
5850;DHT22;2951;47.712;9.400;2024-01-10T05:44:42;-2.70;99.90
5850;DHT22;2951;47.712;9.400;2024-01-10T05:47:09;-2.70;99.90
5850;DHT22;2951;47.712;9.400;2024-01-10T05:49:36;-2.60;99.90
5850;DHT22;2951;47.712;9.400;2024-01-10T05:52:03;-2.80;99.90
5850;DHT22;2951;47.712;9.400;2024-01-10T05:54:30;-2.80;99.90
5850;DHT22;2951;47.712;9.400;2024-01-10T05:56:56;-2.70;99.90
5850;DHT22;2951;47.712;9.400;2024-01-10T05:59:27;-2.70;99.90
5850;DHT22;2951;47.712;9.400;2024-01-10T06:01:55;-2.70;99.90
5850;DHT22;2951;47.712;9.400;2024-01-10T06:04:24;-2.60;99.90
5850;DHT22;2951;47.712;9.400;2024-01-10T06:09:43;-2.70;99.90
5850;DHT22;2951;47.712;9.400;2024-01-10T06:12:13;-2.50;99.90
5850;DHT22;2951;47.712;9.400;2024-01-10T06:14:40;-2.50;99.90
5850;DHT22;2951;47.712;9.400;2024-01-10T06:17:07;-2.50;99.90
5850;DHT22;2951;47.712;9.400;2024-01-10T06:19:34;-2.50;99.90
5850;DHT22;2951;47.712;9.400;2024-01-10T06:22:01;-2.50;99.90
5850;DHT22;2951;47.712;9.400;2024-01-10T06:24:30;-2.50;99.90
5850;DHT22;2951;47.712;9.400;2024-01-10T06:26:57;-2.40;99.90
5850;DHT22;2951;47.712;9.400;2024-01-10T06:29:23;-2.30;99.90
5850;DHT22;2951;47.712;9.400;2024-01-10T06:31:50;-2.30;99.90
5850;DHT22;2951;47.712;9.400;2024-01-10T06:34:17;-2.30;99.90
5850;DHT22;2951;47.712;9.400;2024-01-10T06:36:44;-2.30;99.90
5850;DHT22;2951;47.712;9.400;2024-01-10T06:39:11;-2.30;99.90
5850;DHT22;2951;47.712;9.400;2024-01-10T06:41:42;-2.20;99.90
5850;DHT22;2951;47.712;9.400;2024-01-10T06:44:09;-2.30;99.90
5850;DHT22;2951;47.712;9.400;2024-01-10T06:46:36;-2.40;99.90
5850;DHT22;2951;47.712;9.400;2024-01-10T06:49:03;-2.50;99.90
5850;DHT22;2951;47.712;9.400;2024-01-10T06:51:31;-2.50;99.90
5850;DHT22;2951;47.712;9.400;2024-01-10T06:54:00;-2.50;99.90
5850;DHT22;2951;47.712;9.400;2024-01-10T06:56:30;-2.40;99.90
5850;DHT22;2951;47.712;9.400;2024-01-10T06:58:57;-2.40;99.90
5850;DHT22;2951;47.712;9.400;2024-01-10T07:01:26;-2.50;99.90
5850;DHT22;2951;47.712;9.400;2024-01-10T07:03:53;-2.50;99.90
5850;DHT22;2951;47.712;9.400;2024-01-10T07:06:21;-2.60;99.90
5850;DHT22;2951;47.712;9.400;2024-01-10T07:08:49;-2.70;99.90
5850;DHT22;2951;47.712;9.400;2024-01-10T07:11:18;-2.60;99.90
5850;DHT22;2951;47.712;9.400;2024-01-10T07:13:46;-2.70;99.90
5850;DHT22;2951;47.712;9.400;2024-01-10T07:16:13;-2.70;99.90
5850;DHT22;2951;47.712;9.400;2024-01-10T07:18:43;-2.70;99.90
5850;DHT22;2951;47.712;9.400;2024-01-10T07:21:11;-2.50;99.90
5850;DHT22;2951;47.712;9.400;2024-01-10T07:23:38;-2.60;99.90
5850;DHT22;2951;47.712;9.400;2024-01-10T07:26:07;-2.60;99.90
5850;DHT22;2951;47.712;9.400;2024-01-10T07:28:34;-2.50;99.90
5850;DHT22;2951;47.712;9.400;2024-01-10T07:31:02;-2.30;99.90
5850;DHT22;2951;47.712;9.400;2024-01-10T07:33:29;-2.40;99.90
5850;DHT22;2951;47.712;9.400;2024-01-10T07:36:00;-2.40;99.90
5850;DHT22;2951;47.712;9.400;2024-01-10T07:38:28;-2.50;99.90
5850;DHT22;2951;47.712;9.400;2024-01-10T07:40:55;-2.30;99.90
5850;DHT22;2951;47.712;9.400;2024-01-10T07:43:22;-2.20;99.90
5850;DHT22;2951;47.712;9.400;2024-01-10T07:45:50;-2.20;99.90
5850;DHT22;2951;47.712;9.400;2024-01-10T07:48:17;-2.10;99.90
5850;DHT22;2951;47.712;9.400;2024-01-10T07:50:44;-2.10;99.90
5850;DHT22;2951;47.712;9.400;2024-01-10T07:53:12;-2.00;99.90
5850;DHT22;2951;47.712;9.400;2024-01-10T07:55:39;-2.20;99.90
5850;DHT22;2951;47.712;9.400;2024-01-10T07:58:07;-2.30;99.90
5850;DHT22;2951;47.712;9.400;2024-01-10T08:00:35;-2.30;99.90
5850;DHT22;2951;47.712;9.400;2024-01-10T08:03:02;-2.10;99.90
5850;DHT22;2951;47.712;9.400;2024-01-10T08:05:30;-1.90;99.90
5850;DHT22;2951;47.712;9.400;2024-01-10T08:07:57;-1.70;99.90
5850;DHT22;2951;47.712;9.400;2024-01-10T08:10:27;-1.70;99.90
5850;DHT22;2951;47.712;9.400;2024-01-10T08:12:54;-1.60;99.90
5850;DHT22;2951;47.712;9.400;2024-01-10T08:15:21;-1.60;99.90
5850;DHT22;2951;47.712;9.400;2024-01-10T08:17:48;-1.40;99.90
5850;DHT22;2951;47.712;9.400;2024-01-10T08:20:16;-1.50;99.90
5850;DHT22;2951;47.712;9.400;2024-01-10T08:22:47;-1.30;99.90
5850;DHT22;2951;47.712;9.400;2024-01-10T08:25:15;-1.10;99.90
5850;DHT22;2951;47.712;9.400;2024-01-10T08:27:45;-1.00;99.90
5850;DHT22;2951;47.712;9.400;2024-01-10T08:30:13;-0.80;99.90
5850;DHT22;2951;47.712;9.400;2024-01-10T08:32:41;-0.90;99.90
5850;DHT22;2951;47.712;9.400;2024-01-10T08:35:08;-0.90;99.90
5850;DHT22;2951;47.712;9.400;2024-01-10T08:37:39;-0.80;99.90
5850;DHT22;2951;47.712;9.400;2024-01-10T08:40:10;-0.60;99.90
5850;DHT22;2951;47.712;9.400;2024-01-10T08:42:38;-0.60;99.90
5850;DHT22;2951;47.712;9.400;2024-01-10T08:45:05;-0.50;99.90
5850;DHT22;2951;47.712;9.400;2024-01-10T08:47:33;-0.60;99.90
5850;DHT22;2951;47.712;9.400;2024-01-10T08:50:01;-0.50;99.90
5850;DHT22;2951;47.712;9.400;2024-01-10T08:52:29;-0.50;99.90
5850;DHT22;2951;47.712;9.400;2024-01-10T08:54:56;-0.40;99.90
5850;DHT22;2951;47.712;9.400;2024-01-10T08:57:23;-0.40;99.90
5850;DHT22;2951;47.712;9.400;2024-01-10T08:59:53;-0.20;99.90
5850;DHT22;2951;47.712;9.400;2024-01-10T09:05:42;-0.10;99.90
5850;DHT22;2951;47.712;9.400;2024-01-10T09:08:18;0.10;99.90
5850;DHT22;2951;47.712;9.400;2024-01-10T09:10:48;0.00;99.90
5850;DHT22;2951;47.712;9.400;2024-01-10T09:13:18;-0.10;99.90
5850;DHT22;2951;47.712;9.400;2024-01-10T09:15:45;-0.10;99.90
5850;DHT22;2951;47.712;9.400;2024-01-10T09:18:15;0.00;99.90
5850;DHT22;2951;47.712;9.400;2024-01-10T09:20:43;0.20;99.90
5850;DHT22;2951;47.712;9.400;2024-01-10T09:23:10;-0.20;99.90
5850;DHT22;2951;47.712;9.400;2024-01-10T09:25:37;0.00;99.90
5850;DHT22;2951;47.712;9.400;2024-01-10T09:28:04;0.00;99.90
5850;DHT22;2951;47.712;9.400;2024-01-10T09:30:31;0.10;99.90
5850;DHT22;2951;47.712;9.400;2024-01-10T09:32:58;-0.10;99.90
5850;DHT22;2951;47.712;9.400;2024-01-10T09:35:26;0.00;99.90
5850;DHT22;2951;47.712;9.400;2024-01-10T09:37:53;-0.10;99.90
5850;DHT22;2951;47.712;9.400;2024-01-10T09:40:21;0.10;99.90
5850;DHT22;2951;47.712;9.400;2024-01-10T09:42:51;0.20;99.90
5850;DHT22;2951;47.712;9.400;2024-01-10T09:45:18;0.10;99.90
5850;DHT22;2951;47.712;9.400;2024-01-10T09:47:48;0.30;99.90
5850;DHT22;2951;47.712;9.400;2024-01-10T09:50:15;0.40;99.90
5850;DHT22;2951;47.712;9.400;2024-01-10T09:52:48;0.40;99.90
5850;DHT22;2951;47.712;9.400;2024-01-10T09:55:18;0.60;99.90
5850;DHT22;2951;47.712;9.400;2024-01-10T09:57:49;0.40;99.90
5850;DHT22;2951;47.712;9.400;2024-01-10T10:00:16;0.40;99.90
5850;DHT22;2951;47.712;9.400;2024-01-10T10:02:45;0.50;99.90
5850;DHT22;2951;47.712;9.400;2024-01-10T10:05:16;0.70;99.90
5850;DHT22;2951;47.712;9.400;2024-01-10T10:10:16;0.80;99.90
5850;DHT22;2951;47.712;9.400;2024-01-10T10:12:48;0.90;99.90
5850;DHT22;2951;47.712;9.400;2024-01-10T10:15:16;0.70;99.90
5850;DHT22;2951;47.712;9.400;2024-01-10T10:17:45;0.50;99.90
5850;DHT22;2951;47.712;9.400;2024-01-10T10:20:28;0.80;99.90
5850;DHT22;2951;47.712;9.400;2024-01-10T10:25:23;1.00;99.90
5850;DHT22;2951;47.712;9.400;2024-01-10T10:27:50;1.00;99.90
5850;DHT22;2951;47.712;9.400;2024-01-10T10:30:19;1.10;99.90
5850;DHT22;2951;47.712;9.400;2024-01-10T10:32:49;1.20;99.90
5850;DHT22;2951;47.712;9.400;2024-01-10T10:35:18;1.20;99.90
5850;DHT22;2951;47.712;9.400;2024-01-10T10:37:55;1.10;99.90
5850;DHT22;2951;47.712;9.400;2024-01-10T10:40:22;0.90;99.90
5850;DHT22;2951;47.712;9.400;2024-01-10T10:42:53;0.90;99.90
5850;DHT22;2951;47.712;9.400;2024-01-10T10:45:21;1.00;99.90
5850;DHT22;2951;47.712;9.400;2024-01-10T10:47:56;0.90;99.90
5850;DHT22;2951;47.712;9.400;2024-01-10T10:50:24;1.00;99.90
5850;DHT22;2951;47.712;9.400;2024-01-10T10:52:52;1.00;99.90
5850;DHT22;2951;47.712;9.400;2024-01-10T10:55:22;0.90;99.90
5850;DHT22;2951;47.712;9.400;2024-01-10T10:57:50;0.70;99.90
5850;DHT22;2951;47.712;9.400;2024-01-10T11:00:26;0.80;99.90
5850;DHT22;2951;47.712;9.400;2024-01-10T11:02:56;0.90;99.90
5850;DHT22;2951;47.712;9.400;2024-01-10T11:05:26;0.90;99.90
5850;DHT22;2951;47.712;9.400;2024-01-10T11:07:54;0.90;99.90
5850;DHT22;2951;47.712;9.400;2024-01-10T11:21:22;0.90;99.90
5850;DHT22;2951;47.712;9.400;2024-01-10T11:24:00;0.90;99.90
5850;DHT22;2951;47.712;9.400;2024-01-10T11:26:27;1.20;99.90
5850;DHT22;2951;47.712;9.400;2024-01-10T11:28:56;1.30;99.90
5850;DHT22;2951;47.712;9.400;2024-01-10T11:31:28;1.20;99.90
5850;DHT22;2951;47.712;9.400;2024-01-10T11:33:56;1.20;99.90
5850;DHT22;2951;47.712;9.400;2024-01-10T11:36:23;1.50;99.90
5850;DHT22;2951;47.712;9.400;2024-01-10T11:39:00;1.60;99.90
5850;DHT22;2951;47.712;9.400;2024-01-10T11:41:33;1.80;99.90
5850;DHT22;2951;47.712;9.400;2024-01-10T11:46:46;1.90;99.90
5850;DHT22;2951;47.712;9.400;2024-01-10T11:49:14;1.80;99.90
5850;DHT22;2951;47.712;9.400;2024-01-10T11:51:48;1.90;99.90
5850;DHT22;2951;47.712;9.400;2024-01-10T11:57:07;2.20;99.90
5850;DHT22;2951;47.712;9.400;2024-01-10T11:59:34;2.10;99.90
5850;DHT22;2951;47.712;9.400;2024-01-10T12:02:04;1.90;99.90
5850;DHT22;2951;47.712;9.400;2024-01-10T12:04:31;2.00;99.90
5850;DHT22;2951;47.712;9.400;2024-01-10T12:07:07;2.10;99.90
5850;DHT22;2951;47.712;9.400;2024-01-10T12:09:34;2.00;99.90
5850;DHT22;2951;47.712;9.400;2024-01-10T12:12:05;2.00;99.90
5850;DHT22;2951;47.712;9.400;2024-01-10T12:14:36;2.00;99.90
5850;DHT22;2951;47.712;9.400;2024-01-10T12:17:04;2.10;99.90
5850;DHT22;2951;47.712;9.400;2024-01-10T12:19:31;2.20;99.90
5850;DHT22;2951;47.712;9.400;2024-01-10T12:21:59;2.30;99.90
5850;DHT22;2951;47.712;9.400;2024-01-10T12:24:29;2.30;99.90
5850;DHT22;2951;47.712;9.400;2024-01-10T12:26:56;2.60;99.90
5850;DHT22;2951;47.712;9.400;2024-01-10T12:29:31;2.80;99.90
5850;DHT22;2951;47.712;9.400;2024-01-10T12:31:58;2.60;99.90
5850;DHT22;2951;47.712;9.400;2024-01-10T12:34:26;2.60;99.90
5850;DHT22;2951;47.712;9.400;2024-01-10T12:36:56;2.50;99.90
5850;DHT22;2951;47.712;9.400;2024-01-10T12:39:23;2.00;99.90
5850;DHT22;2951;47.712;9.400;2024-01-10T12:41:53;1.40;99.90
5850;DHT22;2951;47.712;9.400;2024-01-10T12:44:21;1.20;99.90
5850;DHT22;2951;47.712;9.400;2024-01-10T12:46:49;1.20;99.90
5850;DHT22;2951;47.712;9.400;2024-01-10T12:49:18;1.30;99.90
5850;DHT22;2951;47.712;9.400;2024-01-10T12:51:46;1.30;99.90
5850;DHT22;2951;47.712;9.400;2024-01-10T12:54:14;1.10;99.90
5850;DHT22;2951;47.712;9.400;2024-01-10T12:56:41;1.10;99.90
5850;DHT22;2951;47.712;9.400;2024-01-10T12:59:08;1.30;99.90
5850;DHT22;2951;47.712;9.400;2024-01-10T13:01:36;1.60;99.90
5850;DHT22;2951;47.712;9.400;2024-01-10T13:04:13;1.80;99.90
5850;DHT22;2951;47.712;9.400;2024-01-10T13:06:40;1.80;99.90
5850;DHT22;2951;47.712;9.400;2024-01-10T13:09:11;1.80;99.90
5850;DHT22;2951;47.712;9.400;2024-01-10T13:11:37;1.80;99.90
5850;DHT22;2951;47.712;9.400;2024-01-10T13:14:04;1.70;99.90
5850;DHT22;2951;47.712;9.400;2024-01-10T13:16:31;1.70;99.90
5850;DHT22;2951;47.712;9.400;2024-01-10T13:19:08;1.70;99.90
5850;DHT22;2951;47.712;9.400;2024-01-10T13:21:35;1.90;99.90
5850;DHT22;2951;47.712;9.400;2024-01-10T13:24:02;1.90;99.90
5850;DHT22;2951;47.712;9.400;2024-01-10T13:26:29;1.80;99.90
5850;DHT22;2951;47.712;9.400;2024-01-10T13:28:56;1.80;99.90
5850;DHT22;2951;47.712;9.400;2024-01-10T13:31:23;1.80;99.90
5850;DHT22;2951;47.712;9.400;2024-01-10T13:33:50;1.80;99.90
5850;DHT22;2951;47.712;9.400;2024-01-10T13:36:19;1.90;99.90
5850;DHT22;2951;47.712;9.400;2024-01-10T13:38:46;1.80;99.90
5850;DHT22;2951;47.712;9.400;2024-01-10T13:41:13;1.80;99.90
5850;DHT22;2951;47.712;9.400;2024-01-10T13:43:41;1.90;99.90
5850;DHT22;2951;47.712;9.400;2024-01-10T13:46:08;1.90;99.90
5850;DHT22;2951;47.712;9.400;2024-01-10T13:48:35;1.70;99.90
5850;DHT22;2951;47.712;9.400;2024-01-10T13:51:03;1.70;99.90
5850;DHT22;2951;47.712;9.400;2024-01-10T13:53:30;1.70;99.90
5850;DHT22;2951;47.712;9.400;2024-01-10T13:55:57;1.90;99.90
5850;DHT22;2951;47.712;9.400;2024-01-10T13:58:25;1.80;99.90
5850;DHT22;2951;47.712;9.400;2024-01-10T14:00:52;1.60;99.90
5850;DHT22;2951;47.712;9.400;2024-01-10T14:03:19;1.70;99.90
5850;DHT22;2951;47.712;9.400;2024-01-10T14:05:47;2.00;99.90
5850;DHT22;2951;47.712;9.400;2024-01-10T14:08:14;2.10;99.90
5850;DHT22;2951;47.712;9.400;2024-01-10T14:10:46;2.40;99.90
5850;DHT22;2951;47.712;9.400;2024-01-10T14:13:15;2.30;99.90
5850;DHT22;2951;47.712;9.400;2024-01-10T14:15:42;2.20;99.90
5850;DHT22;2951;47.712;9.400;2024-01-10T14:18:09;2.50;99.90
5850;DHT22;2951;47.712;9.400;2024-01-10T14:20:37;2.80;99.90
5850;DHT22;2951;47.712;9.400;2024-01-10T14:23:06;2.60;99.90
5850;DHT22;2951;47.712;9.400;2024-01-10T14:25:33;2.10;99.90
5850;DHT22;2951;47.712;9.400;2024-01-10T14:28:01;2.90;99.90
5850;DHT22;2951;47.712;9.400;2024-01-10T14:30:29;3.80;99.90
5850;DHT22;2951;47.712;9.400;2024-01-10T14:32:57;4.10;99.90
5850;DHT22;2951;47.712;9.400;2024-01-10T14:35:27;4.30;99.90
5850;DHT22;2951;47.712;9.400;2024-01-10T14:37:54;4.10;99.90
5850;DHT22;2951;47.712;9.400;2024-01-10T14:40:21;4.50;99.90
5850;DHT22;2951;47.712;9.400;2024-01-10T14:42:50;4.30;99.90
5850;DHT22;2951;47.712;9.400;2024-01-10T14:45:17;4.20;99.90
5850;DHT22;2951;47.712;9.400;2024-01-10T14:47:44;3.80;99.90
5850;DHT22;2951;47.712;9.400;2024-01-10T14:50:11;3.80;99.90
5850;DHT22;2951;47.712;9.400;2024-01-10T14:52:38;3.80;99.90
5850;DHT22;2951;47.712;9.400;2024-01-10T14:55:05;3.60;99.90
5850;DHT22;2951;47.712;9.400;2024-01-10T14:57:32;3.10;99.90
5850;DHT22;2951;47.712;9.400;2024-01-10T14:59:59;3.30;99.90
5850;DHT22;2951;47.712;9.400;2024-01-10T15:02:26;2.90;99.90
5850;DHT22;2951;47.712;9.400;2024-01-10T15:04:55;2.50;99.90
5850;DHT22;2951;47.712;9.400;2024-01-10T15:07:22;2.60;99.90
5850;DHT22;2951;47.712;9.400;2024-01-10T15:09:56;2.40;99.90
5850;DHT22;2951;47.712;9.400;2024-01-10T15:12:26;2.00;99.90
5850;DHT22;2951;47.712;9.400;2024-01-10T15:14:53;1.70;99.90
5850;DHT22;2951;47.712;9.400;2024-01-10T15:17:21;1.70;99.90
5850;DHT22;2951;47.712;9.400;2024-01-10T15:19:47;1.40;99.90
5850;DHT22;2951;47.712;9.400;2024-01-10T15:22:14;1.00;99.90
5850;DHT22;2951;47.712;9.400;2024-01-10T15:24:41;1.00;99.90
5850;DHT22;2951;47.712;9.400;2024-01-10T15:27:10;0.80;99.90
5850;DHT22;2951;47.712;9.400;2024-01-10T15:29:38;0.50;99.90
5850;DHT22;2951;47.712;9.400;2024-01-10T15:32:05;0.50;99.90
5850;DHT22;2951;47.712;9.400;2024-01-10T15:34:33;0.30;99.90
5850;DHT22;2951;47.712;9.400;2024-01-10T15:37:00;0.10;99.90
5850;DHT22;2951;47.712;9.400;2024-01-10T15:39:26;-0.20;99.90
5850;DHT22;2951;47.712;9.400;2024-01-10T15:41:53;-0.20;99.90
5850;DHT22;2951;47.712;9.400;2024-01-10T15:44:21;-0.40;99.90
5850;DHT22;2951;47.712;9.400;2024-01-10T15:46:48;-0.50;99.90
5850;DHT22;2951;47.712;9.400;2024-01-10T15:49:15;-0.60;99.90
5850;DHT22;2951;47.712;9.400;2024-01-10T15:51:43;-0.70;99.90
5850;DHT22;2951;47.712;9.400;2024-01-10T15:54:09;-0.80;99.90
5850;DHT22;2951;47.712;9.400;2024-01-10T15:56:36;-0.90;99.90
5850;DHT22;2951;47.712;9.400;2024-01-10T15:59:07;-0.90;99.90
5850;DHT22;2951;47.712;9.400;2024-01-10T16:01:34;-1.00;99.90
5850;DHT22;2951;47.712;9.400;2024-01-10T16:04:02;-1.00;99.90
5850;DHT22;2951;47.712;9.400;2024-01-10T16:06:32;-1.10;99.90
5850;DHT22;2951;47.712;9.400;2024-01-10T16:09:00;-1.20;99.90
5850;DHT22;2951;47.712;9.400;2024-01-10T16:11:28;-1.10;99.90
5850;DHT22;2951;47.712;9.400;2024-01-10T16:13:55;-1.20;99.90
5850;DHT22;2951;47.712;9.400;2024-01-10T16:16:26;-1.20;99.90
5850;DHT22;2951;47.712;9.400;2024-01-10T16:18:56;-1.30;99.90
5850;DHT22;2951;47.712;9.400;2024-01-10T16:21:22;-1.30;99.90
5850;DHT22;2951;47.712;9.400;2024-01-10T16:23:49;-1.30;99.90
5850;DHT22;2951;47.712;9.400;2024-01-10T16:26:16;-1.30;99.90
5850;DHT22;2951;47.712;9.400;2024-01-10T16:28:43;-1.30;99.90
5850;DHT22;2951;47.712;9.400;2024-01-10T16:31:10;-1.30;99.90
5850;DHT22;2951;47.712;9.400;2024-01-10T16:33:37;-1.30;99.90
5850;DHT22;2951;47.712;9.400;2024-01-10T16:36:03;-1.30;99.90
5850;DHT22;2951;47.712;9.400;2024-01-10T16:38:30;-1.30;99.90
5850;DHT22;2951;47.712;9.400;2024-01-10T16:41:24;-1.30;99.90